sensor_id;sensor_type;location;lat;lon;timestamp;P1;durP1;ratioP1;P2;durP2;ratioP2
70406;SDS011;57821;52.202;0.154;2024-01-10T00:01:54;8.48;;;1.98;;
70406;SDS011;57821;52.202;0.154;2024-01-10T00:04:21;13.05;;;1.63;;
70406;SDS011;57821;52.202;0.154;2024-01-10T00:06:48;10.35;;;1.70;;
70406;SDS011;57821;52.202;0.154;2024-01-10T00:09:14;9.48;;;1.67;;
70406;SDS011;57821;52.202;0.154;2024-01-10T00:11:41;16.90;;;2.55;;
70406;SDS011;57821;52.202;0.154;2024-01-10T00:14:08;10.45;;;1.75;;
70406;SDS011;57821;52.202;0.154;2024-01-10T00:16:36;12.32;;;1.83;;
70406;SDS011;57821;52.202;0.154;2024-01-10T00:19:02;10.75;;;1.75;;
70406;SDS011;57821;52.202;0.154;2024-01-10T00:21:30;11.75;;;1.70;;
70406;SDS011;57821;52.202;0.154;2024-01-10T00:23:57;7.95;;;1.40;;
70406;SDS011;57821;52.202;0.154;2024-01-10T00:26:24;16.00;;;2.85;;
70406;SDS011;57821;52.202;0.154;2024-01-10T00:28:50;14.05;;;2.05;;
70406;SDS011;57821;52.202;0.154;2024-01-10T00:31:17;12.77;;;1.92;;
70406;SDS011;57821;52.202;0.154;2024-01-10T00:33:44;10.73;;;2.15;;
70406;SDS011;57821;52.202;0.154;2024-01-10T00:36:11;8.50;;;2.00;;
70406;SDS011;57821;52.202;0.154;2024-01-10T00:38:38;12.57;;;2.00;;
70406;SDS011;57821;52.202;0.154;2024-01-10T00:41:05;13.65;;;2.38;;
70406;SDS011;57821;52.202;0.154;2024-01-10T00:43:31;11.70;;;2.33;;
70406;SDS011;57821;52.202;0.154;2024-01-10T00:45:58;9.02;;;1.63;;
70406;SDS011;57821;52.202;0.154;2024-01-10T00:48:25;11.63;;;3.42;;
70406;SDS011;57821;52.202;0.154;2024-01-10T00:50:52;10.43;;;2.05;;
70406;SDS011;57821;52.202;0.154;2024-01-10T00:53:19;16.95;;;2.72;;
70406;SDS011;57821;52.202;0.154;2024-01-10T00:55:45;16.38;;;2.10;;
70406;SDS011;57821;52.202;0.154;2024-01-10T00:58:12;9.45;;;1.98;;
70406;SDS011;57821;52.202;0.154;2024-01-10T01:00:39;11.15;;;1.98;;
70406;SDS011;57821;52.202;0.154;2024-01-10T01:03:05;10.23;;;2.20;;
70406;SDS011;57821;52.202;0.154;2024-01-10T01:05:32;8.98;;;1.95;;
70406;SDS011;57821;52.202;0.154;2024-01-10T01:07:59;13.30;;;1.90;;
70406;SDS011;57821;52.202;0.154;2024-01-10T01:10:27;9.38;;;1.65;;
70406;SDS011;57821;52.202;0.154;2024-01-10T01:12:54;9.18;;;2.08;;
70406;SDS011;57821;52.202;0.154;2024-01-10T01:15:21;10.63;;;1.55;;
70406;SDS011;57821;52.202;0.154;2024-01-10T01:17:48;13.93;;;1.83;;
70406;SDS011;57821;52.202;0.154;2024-01-10T01:20:15;10.20;;;2.17;;
70406;SDS011;57821;52.202;0.154;2024-01-10T01:22:41;11.45;;;2.00;;
70406;SDS011;57821;52.202;0.154;2024-01-10T01:25:08;13.10;;;2.65;;
70406;SDS011;57821;52.202;0.154;2024-01-10T01:27:35;15.38;;;3.28;;
70406;SDS011;57821;52.202;0.154;2024-01-10T01:30:02;9.82;;;2.00;;
70406;SDS011;57821;52.202;0.154;2024-01-10T01:32:29;6.38;;;1.40;;
70406;SDS011;57821;52.202;0.154;2024-01-10T01:34:56;11.70;;;1.92;;
70406;SDS011;57821;52.202;0.154;2024-01-10T01:37:23;9.73;;;1.85;;
70406;SDS011;57821;52.202;0.154;2024-01-10T01:39:50;11.45;;;1.60;;
70406;SDS011;57821;52.202;0.154;2024-01-10T01:42:17;9.38;;;2.30;;
70406;SDS011;57821;52.202;0.154;2024-01-10T01:44:43;12.35;;;1.77;;
70406;SDS011;57821;52.202;0.154;2024-01-10T01:47:10;8.48;;;1.42;;
70406;SDS011;57821;52.202;0.154;2024-01-10T01:49:37;10.30;;;2.08;;
70406;SDS011;57821;52.202;0.154;2024-01-10T01:52:04;11.13;;;2.00;;
70406;SDS011;57821;52.202;0.154;2024-01-10T01:54:32;9.05;;;1.83;;
70406;SDS011;57821;52.202;0.154;2024-01-10T01:56:59;10.25;;;2.25;;
70406;SDS011;57821;52.202;0.154;2024-01-10T01:59:26;12.50;;;1.65;;
70406;SDS011;57821;52.202;0.154;2024-01-10T02:01:54;8.07;;;1.52;;
70406;SDS011;57821;52.202;0.154;2024-01-10T02:04:24;11.00;;;1.42;;
70406;SDS011;57821;52.202;0.154;2024-01-10T02:06:51;7.70;;;1.58;;
70406;SDS011;57821;52.202;0.154;2024-01-10T02:09:18;9.30;;;1.63;;
70406;SDS011;57821;52.202;0.154;2024-01-10T02:11:45;14.18;;;1.73;;
70406;SDS011;57821;52.202;0.154;2024-01-10T02:14:12;15.23;;;2.20;;
70406;SDS011;57821;52.202;0.154;2024-01-10T02:16:39;10.00;;;1.48;;
70406;SDS011;57821;52.202;0.154;2024-01-10T02:19:21;15.48;;;1.58;;
70406;SDS011;57821;52.202;0.154;2024-01-10T02:21:49;16.80;;;2.33;;
70406;SDS011;57821;52.202;0.154;2024-01-10T02:24:16;9.73;;;1.80;;
70406;SDS011;57821;52.202;0.154;2024-01-10T02:26:43;11.32;;;1.73;;
70406;SDS011;57821;52.202;0.154;2024-01-10T02:29:10;12.15;;;1.52;;
70406;SDS011;57821;52.202;0.154;2024-01-10T02:31:37;12.23;;;1.73;;
70406;SDS011;57821;52.202;0.154;2024-01-10T02:34:04;8.20;;;1.77;;
70406;SDS011;57821;52.202;0.154;2024-01-10T02:36:31;9.77;;;2.33;;
70406;SDS011;57821;52.202;0.154;2024-01-10T02:38:57;9.65;;;1.67;;
70406;SDS011;57821;52.202;0.154;2024-01-10T02:41:24;10.50;;;1.27;;
70406;SDS011;57821;52.202;0.154;2024-01-10T02:43:51;9.20;;;1.50;;
70406;SDS011;57821;52.202;0.154;2024-01-10T02:46:18;11.90;;;1.67;;
70406;SDS011;57821;52.202;0.154;2024-01-10T02:48:49;12.73;;;1.95;;
70406;SDS011;57821;52.202;0.154;2024-01-10T02:51:15;11.55;;;1.40;;
70406;SDS011;57821;52.202;0.154;2024-01-10T02:53:42;10.00;;;2.05;;
70406;SDS011;57821;52.202;0.154;2024-01-10T02:56:09;9.00;;;1.75;;
70406;SDS011;57821;52.202;0.154;2024-01-10T02:58:36;12.57;;;2.25;;
70406;SDS011;57821;52.202;0.154;2024-01-10T03:01:03;14.18;;;1.88;;
70406;SDS011;57821;52.202;0.154;2024-01-10T03:03:29;14.07;;;1.88;;
70406;SDS011;57821;52.202;0.154;2024-01-10T03:05:56;9.45;;;1.40;;
70406;SDS011;57821;52.202;0.154;2024-01-10T03:08:23;14.75;;;2.03;;
70406;SDS011;57821;52.202;0.154;2024-01-10T03:10:50;10.23;;;2.00;;
70406;SDS011;57821;52.202;0.154;2024-01-10T03:13:16;9.10;;;1.80;;
70406;SDS011;57821;52.202;0.154;2024-01-10T03:15:43;10.50;;;2.05;;
70406;SDS011;57821;52.202;0.154;2024-01-10T03:18:10;14.15;;;1.73;;
70406;SDS011;57821;52.202;0.154;2024-01-10T03:20:36;12.38;;;1.80;;
70406;SDS011;57821;52.202;0.154;2024-01-10T03:23:03;11.02;;;1.88;;
70406;SDS011;57821;52.202;0.154;2024-01-10T03:25:30;12.05;;;1.63;;
70406;SDS011;57821;52.202;0.154;2024-01-10T03:27:57;7.47;;;1.65;;
70406;SDS011;57821;52.202;0.154;2024-01-10T03:30:23;7.70;;;1.58;;
70406;SDS011;57821;52.202;0.154;2024-01-10T03:32:51;10.68;;;1.65;;
70406;SDS011;57821;52.202;0.154;2024-01-10T03:35:17;7.85;;;1.38;;
70406;SDS011;57821;52.202;0.154;2024-01-10T03:37:44;13.65;;;1.90;;
70406;SDS011;57821;52.202;0.154;2024-01-10T03:40:11;15.77;;;1.95;;
70406;SDS011;57821;52.202;0.154;2024-01-10T03:42:38;10.45;;;1.75;;
70406;SDS011;57821;52.202;0.154;2024-01-10T03:45:05;8.40;;;1.50;;
70406;SDS011;57821;52.202;0.154;2024-01-10T03:47:32;9.48;;;1.98;;
70406;SDS011;57821;52.202;0.154;2024-01-10T03:49:59;12.10;;;1.98;;
70406;SDS011;57821;52.202;0.154;2024-01-10T03:52:26;13.88;;;1.90;;
70406;SDS011;57821;52.202;0.154;2024-01-10T03:54:52;10.82;;;2.00;;
70406;SDS011;57821;52.202;0.154;2024-01-10T03:57:19;14.48;;;2.25;;
70406;SDS011;57821;52.202;0.154;2024-01-10T03:59:46;13.63;;;1.65;;
70406;SDS011;57821;52.202;0.154;2024-01-10T04:02:12;15.50;;;2.45;;
70406;SDS011;57821;52.202;0.154;2024-01-10T04:04:39;18.25;;;2.20;;
70406;SDS011;57821;52.202;0.154;2024-01-10T04:07:06;15.05;;;2.72;;
70406;SDS011;57821;52.202;0.154;2024-01-10T04:09:33;11.18;;;2.30;;
70406;SDS011;57821;52.202;0.154;2024-01-10T04:12:00;10.93;;;1.60;;
70406;SDS011;57821;52.202;0.154;2024-01-10T04:14:26;8.65;;;1.92;;
70406;SDS011;57821;52.202;0.154;2024-01-10T04:16:53;11.30;;;2.10;;
70406;SDS011;57821;52.202;0.154;2024-01-10T04:19:20;8.00;;;2.25;;
70406;SDS011;57821;52.202;0.154;2024-01-10T04:21:47;16.90;;;2.88;;
70406;SDS011;57821;52.202;0.154;2024-01-10T04:24:14;17.70;;;2.45;;
70406;SDS011;57821;52.202;0.154;2024-01-10T04:26:41;11.95;;;1.83;;
70406;SDS011;57821;52.202;0.154;2024-01-10T04:29:08;12.88;;;2.78;;
70406;SDS011;57821;52.202;0.154;2024-01-10T04:31:34;17.45;;;2.72;;
70406;SDS011;57821;52.202;0.154;2024-01-10T04:34:02;21.35;;;4.57;;
70406;SDS011;57821;52.202;0.154;2024-01-10T04:36:29;19.90;;;2.28;;
70406;SDS011;57821;52.202;0.154;2024-01-10T04:38:55;18.48;;;2.85;;
70406;SDS011;57821;52.202;0.154;2024-01-10T04:41:22;13.82;;;2.55;;
70406;SDS011;57821;52.202;0.154;2024-01-10T04:43:49;15.10;;;2.60;;
70406;SDS011;57821;52.202;0.154;2024-01-10T04:46:16;22.90;;;2.42;;
70406;SDS011;57821;52.202;0.154;2024-01-10T04:48:43;9.43;;;2.03;;
70406;SDS011;57821;52.202;0.154;2024-01-10T04:51:10;9.32;;;2.35;;
70406;SDS011;57821;52.202;0.154;2024-01-10T04:53:36;13.55;;;2.55;;
70406;SDS011;57821;52.202;0.154;2024-01-10T04:56:03;14.05;;;2.75;;
70406;SDS011;57821;52.202;0.154;2024-01-10T04:58:30;10.55;;;2.30;;
70406;SDS011;57821;52.202;0.154;2024-01-10T05:00:59;15.45;;;2.60;;
70406;SDS011;57821;52.202;0.154;2024-01-10T05:03:26;12.63;;;2.47;;
70406;SDS011;57821;52.202;0.154;2024-01-10T05:05:53;9.02;;;2.45;;
70406;SDS011;57821;52.202;0.154;2024-01-10T05:08:20;10.98;;;3.15;;
70406;SDS011;57821;52.202;0.154;2024-01-10T05:10:47;14.88;;;2.40;;
70406;SDS011;57821;52.202;0.154;2024-01-10T05:13:14;16.63;;;3.40;;
70406;SDS011;57821;52.202;0.154;2024-01-10T05:15:51;16.70;;;3.08;;
70406;SDS011;57821;52.202;0.154;2024-01-10T05:18:17;12.75;;;2.67;;
70406;SDS011;57821;52.202;0.154;2024-01-10T05:20:45;12.25;;;2.63;;
70406;SDS011;57821;52.202;0.154;2024-01-10T05:23:11;18.63;;;5.55;;
70406;SDS011;57821;52.202;0.154;2024-01-10T05:25:38;12.82;;;2.47;;
70406;SDS011;57821;52.202;0.154;2024-01-10T05:28:05;13.68;;;2.60;;
70406;SDS011;57821;52.202;0.154;2024-01-10T05:30:32;15.32;;;2.92;;
70406;SDS011;57821;52.202;0.154;2024-01-10T05:32:59;13.77;;;2.78;;
70406;SDS011;57821;52.202;0.154;2024-01-10T05:35:26;15.45;;;2.45;;
70406;SDS011;57821;52.202;0.154;2024-01-10T05:37:53;15.15;;;2.70;;
70406;SDS011;57821;52.202;0.154;2024-01-10T05:40:20;13.27;;;2.72;;
70406;SDS011;57821;52.202;0.154;2024-01-10T05:42:47;8.90;;;2.05;;
70406;SDS011;57821;52.202;0.154;2024-01-10T05:45:15;10.70;;;2.03;;
70406;SDS011;57821;52.202;0.154;2024-01-10T05:47:44;14.50;;;2.60;;
70406;SDS011;57821;52.202;0.154;2024-01-10T05:50:11;12.00;;;2.53;;
70406;SDS011;57821;52.202;0.154;2024-01-10T05:52:38;13.70;;;2.72;;
70406;SDS011;57821;52.202;0.154;2024-01-10T05:55:05;16.27;;;2.67;;
70406;SDS011;57821;52.202;0.154;2024-01-10T05:57:35;15.00;;;2.65;;
70406;SDS011;57821;52.202;0.154;2024-01-10T06:00:02;8.93;;;2.20;;
70406;SDS011;57821;52.202;0.154;2024-01-10T06:02:31;9.55;;;2.47;;
70406;SDS011;57821;52.202;0.154;2024-01-10T06:04:58;18.00;;;2.70;;
70406;SDS011;57821;52.202;0.154;2024-01-10T06:07:24;10.15;;;2.50;;
70406;SDS011;57821;52.202;0.154;2024-01-10T06:09:51;14.73;;;2.08;;
70406;SDS011;57821;52.202;0.154;2024-01-10T06:12:18;13.85;;;1.95;;
70406;SDS011;57821;52.202;0.154;2024-01-10T06:14:44;12.68;;;2.33;;
70406;SDS011;57821;52.202;0.154;2024-01-10T06:17:11;16.88;;;2.78;;
70406;SDS011;57821;52.202;0.154;2024-01-10T06:19:38;15.65;;;2.65;;
70406;SDS011;57821;52.202;0.154;2024-01-10T06:22:06;12.63;;;2.25;;
70406;SDS011;57821;52.202;0.154;2024-01-10T06:24:32;17.27;;;2.65;;
70406;SDS011;57821;52.202;0.154;2024-01-10T06:26:59;16.17;;;2.47;;
70406;SDS011;57821;52.202;0.154;2024-01-10T06:29:25;10.98;;;2.78;;
70406;SDS011;57821;52.202;0.154;2024-01-10T06:31:53;9.45;;;2.45;;
70406;SDS011;57821;52.202;0.154;2024-01-10T06:34:20;14.45;;;2.45;;
70406;SDS011;57821;52.202;0.154;2024-01-10T06:36:46;9.38;;;1.98;;
70406;SDS011;57821;52.202;0.154;2024-01-10T06:39:14;10.00;;;2.40;;
70406;SDS011;57821;52.202;0.154;2024-01-10T06:41:42;16.35;;;2.75;;
70406;SDS011;57821;52.202;0.154;2024-01-10T06:44:09;9.20;;;2.08;;
70406;SDS011;57821;52.202;0.154;2024-01-10T06:46:35;13.65;;;2.00;;
70406;SDS011;57821;52.202;0.154;2024-01-10T06:49:02;12.23;;;2.10;;
70406;SDS011;57821;52.202;0.154;2024-01-10T06:51:29;8.88;;;1.55;;
70406;SDS011;57821;52.202;0.154;2024-01-10T06:53:56;8.63;;;1.77;;
70406;SDS011;57821;52.202;0.154;2024-01-10T06:56:30;10.13;;;2.15;;
70406;SDS011;57821;52.202;0.154;2024-01-10T06:58:57;15.30;;;2.92;;
70406;SDS011;57821;52.202;0.154;2024-01-10T07:01:25;9.85;;;1.98;;
70406;SDS011;57821;52.202;0.154;2024-01-10T07:03:52;13.73;;;2.30;;
70406;SDS011;57821;52.202;0.154;2024-01-10T07:06:21;9.82;;;1.77;;
70406;SDS011;57821;52.202;0.154;2024-01-10T07:08:49;15.40;;;1.90;;
70406;SDS011;57821;52.202;0.154;2024-01-10T07:11:17;10.82;;;2.05;;
70406;SDS011;57821;52.202;0.154;2024-01-10T07:13:46;13.63;;;1.90;;
70406;SDS011;57821;52.202;0.154;2024-01-10T07:16:13;13.00;;;2.50;;
70406;SDS011;57821;52.202;0.154;2024-01-10T07:18:43;9.48;;;1.67;;
70406;SDS011;57821;52.202;0.154;2024-01-10T07:21:11;13.65;;;2.10;;
70406;SDS011;57821;52.202;0.154;2024-01-10T07:23:38;9.63;;;1.58;;
70406;SDS011;57821;52.202;0.154;2024-01-10T07:26:07;11.63;;;2.50;;
70406;SDS011;57821;52.202;0.154;2024-01-10T07:28:34;7.90;;;2.63;;
70406;SDS011;57821;52.202;0.154;2024-01-10T07:31:01;8.80;;;1.75;;
70406;SDS011;57821;52.202;0.154;2024-01-10T07:33:29;9.13;;;2.20;;
70406;SDS011;57821;52.202;0.154;2024-01-10T07:36:00;11.15;;;2.42;;
70406;SDS011;57821;52.202;0.154;2024-01-10T07:38:27;10.45;;;2.13;;
70406;SDS011;57821;52.202;0.154;2024-01-10T07:40:54;15.15;;;2.40;;
70406;SDS011;57821;52.202;0.154;2024-01-10T07:43:21;12.75;;;2.45;;
70406;SDS011;57821;52.202;0.154;2024-01-10T07:45:47;13.73;;;1.88;;
70406;SDS011;57821;52.202;0.154;2024-01-10T07:48:15;7.72;;;1.92;;
70406;SDS011;57821;52.202;0.154;2024-01-10T07:50:42;13.43;;;2.47;;
70406;SDS011;57821;52.202;0.154;2024-01-10T07:53:09;10.02;;;2.00;;
70406;SDS011;57821;52.202;0.154;2024-01-10T07:55:38;9.18;;;2.40;;
70406;SDS011;57821;52.202;0.154;2024-01-10T07:58:04;15.82;;;2.42;;
70406;SDS011;57821;52.202;0.154;2024-01-10T08:00:32;12.52;;;2.30;;
70406;SDS011;57821;52.202;0.154;2024-01-10T08:02:59;12.15;;;2.50;;
70406;SDS011;57821;52.202;0.154;2024-01-10T08:05:25;16.45;;;2.53;;
70406;SDS011;57821;52.202;0.154;2024-01-10T08:07:52;15.13;;;2.97;;
70406;SDS011;57821;52.202;0.154;2024-01-10T08:10:19;15.27;;;2.72;;
70406;SDS011;57821;52.202;0.154;2024-01-10T08:12:48;13.18;;;2.60;;
70406;SDS011;57821;52.202;0.154;2024-01-10T08:15:14;9.05;;;2.25;;
70406;SDS011;57821;52.202;0.154;2024-01-10T08:17:41;14.10;;;2.20;;
70406;SDS011;57821;52.202;0.154;2024-01-10T08:20:08;12.10;;;2.03;;
70406;SDS011;57821;52.202;0.154;2024-01-10T08:22:37;8.60;;;2.35;;
70406;SDS011;57821;52.202;0.154;2024-01-10T08:25:04;13.25;;;2.85;;
70406;SDS011;57821;52.202;0.154;2024-01-10T08:27:31;13.68;;;2.67;;
70406;SDS011;57821;52.202;0.154;2024-01-10T08:29:59;12.13;;;2.65;;
70406;SDS011;57821;52.202;0.154;2024-01-10T08:32:26;12.88;;;3.33;;
70406;SDS011;57821;52.202;0.154;2024-01-10T08:34:53;15.05;;;2.78;;
70406;SDS011;57821;52.202;0.154;2024-01-10T08:37:20;14.18;;;2.75;;
70406;SDS011;57821;52.202;0.154;2024-01-10T08:39:47;10.45;;;2.95;;
70406;SDS011;57821;52.202;0.154;2024-01-10T08:42:13;16.35;;;2.85;;
70406;SDS011;57821;52.202;0.154;2024-01-10T08:44:40;17.85;;;3.00;;
70406;SDS011;57821;52.202;0.154;2024-01-10T08:47:07;10.68;;;2.50;;
70406;SDS011;57821;52.202;0.154;2024-01-10T08:49:34;14.43;;;3.38;;
70406;SDS011;57821;52.202;0.154;2024-01-10T08:52:00;14.95;;;2.70;;
70406;SDS011;57821;52.202;0.154;2024-01-10T08:54:27;13.43;;;2.90;;
70406;SDS011;57821;52.202;0.154;2024-01-10T08:56:54;24.58;;;3.72;;
70406;SDS011;57821;52.202;0.154;2024-01-10T08:59:21;13.50;;;3.05;;
70406;SDS011;57821;52.202;0.154;2024-01-10T09:01:48;7.47;;;2.47;;
70406;SDS011;57821;52.202;0.154;2024-01-10T09:04:15;14.05;;;2.55;;
70406;SDS011;57821;52.202;0.154;2024-01-10T09:06:42;14.30;;;3.13;;
70406;SDS011;57821;52.202;0.154;2024-01-10T09:09:09;14.68;;;3.10;;
70406;SDS011;57821;52.202;0.154;2024-01-10T09:11:36;8.95;;;2.28;;
70406;SDS011;57821;52.202;0.154;2024-01-10T09:14:07;11.20;;;2.47;;
70406;SDS011;57821;52.202;0.154;2024-01-10T09:16:35;17.52;;;3.40;;
70406;SDS011;57821;52.202;0.154;2024-01-10T09:19:02;10.55;;;2.60;;
70406;SDS011;57821;52.202;0.154;2024-01-10T09:21:29;8.50;;;2.50;;
70406;SDS011;57821;52.202;0.154;2024-01-10T09:23:55;12.05;;;2.95;;
70406;SDS011;57821;52.202;0.154;2024-01-10T09:26:23;11.65;;;3.08;;
70406;SDS011;57821;52.202;0.154;2024-01-10T09:28:50;11.75;;;2.92;;
70406;SDS011;57821;52.202;0.154;2024-01-10T09:31:16;14.57;;;2.67;;
70406;SDS011;57821;52.202;0.154;2024-01-10T09:33:43;10.93;;;2.60;;
70406;SDS011;57821;52.202;0.154;2024-01-10T09:36:10;11.35;;;3.88;;
70406;SDS011;57821;52.202;0.154;2024-01-10T09:38:37;15.70;;;4.07;;
70406;SDS011;57821;52.202;0.154;2024-01-10T09:41:04;15.27;;;3.50;;
70406;SDS011;57821;52.202;0.154;2024-01-10T09:43:32;8.45;;;2.65;;
70406;SDS011;57821;52.202;0.154;2024-01-10T09:46:02;12.57;;;2.63;;
70406;SDS011;57821;52.202;0.154;2024-01-10T09:48:31;17.08;;;3.40;;
70406;SDS011;57821;52.202;0.154;2024-01-10T09:50:59;11.35;;;3.05;;
70406;SDS011;57821;52.202;0.154;2024-01-10T09:53:26;8.07;;;2.58;;
70406;SDS011;57821;52.202;0.154;2024-01-10T09:55:53;7.32;;;2.33;;
70406;SDS011;57821;52.202;0.154;2024-01-10T09:58:23;8.57;;;2.53;;
70406;SDS011;57821;52.202;0.154;2024-01-10T10:00:53;10.07;;;2.60;;
70406;SDS011;57821;52.202;0.154;2024-01-10T10:03:19;8.85;;;2.30;;
70406;SDS011;57821;52.202;0.154;2024-01-10T10:05:46;8.88;;;2.00;;
70406;SDS011;57821;52.202;0.154;2024-01-10T10:08:13;8.75;;;2.20;;
70406;SDS011;57821;52.202;0.154;2024-01-10T10:10:42;8.57;;;1.90;;
70406;SDS011;57821;52.202;0.154;2024-01-10T10:13:23;6.43;;;1.90;;
70406;SDS011;57821;52.202;0.154;2024-01-10T10:15:58;8.98;;;2.05;;
70406;SDS011;57821;52.202;0.154;2024-01-10T10:18:27;8.40;;;2.13;;
70406;SDS011;57821;52.202;0.154;2024-01-10T10:21:10;7.97;;;1.77;;
70406;SDS011;57821;52.202;0.154;2024-01-10T10:23:40;7.20;;;1.60;;
70406;SDS011;57821;52.202;0.154;2024-01-10T10:26:14;7.55;;;1.70;;
70406;SDS011;57821;52.202;0.154;2024-01-10T10:28:47;10.10;;;2.00;;
70406;SDS011;57821;52.202;0.154;2024-01-10T10:31:15;8.18;;;2.00;;
70406;SDS011;57821;52.202;0.154;2024-01-10T10:33:44;7.45;;;1.83;;
70406;SDS011;57821;52.202;0.154;2024-01-10T10:36:13;8.77;;;1.88;;
70406;SDS011;57821;52.202;0.154;2024-01-10T10:38:50;7.10;;;1.63;;
70406;SDS011;57821;52.202;0.154;2024-01-10T10:41:17;8.88;;;2.00;;
70406;SDS011;57821;52.202;0.154;2024-01-10T10:43:45;7.03;;;1.70;;
70406;SDS011;57821;52.202;0.154;2024-01-10T10:46:13;8.43;;;1.85;;
70406;SDS011;57821;52.202;0.154;2024-01-10T10:48:41;9.57;;;1.80;;
70406;SDS011;57821;52.202;0.154;2024-01-10T10:51:15;9.85;;;1.98;;
70406;SDS011;57821;52.202;0.154;2024-01-10T10:53:54;5.13;;;1.40;;
70406;SDS011;57821;52.202;0.154;2024-01-10T10:56:22;10.07;;;1.90;;
70406;SDS011;57821;52.202;0.154;2024-01-10T10:58:50;8.98;;;1.92;;
70406;SDS011;57821;52.202;0.154;2024-01-10T11:01:18;9.48;;;1.60;;
70406;SDS011;57821;52.202;0.154;2024-01-10T11:03:46;13.40;;;1.95;;
70406;SDS011;57821;52.202;0.154;2024-01-10T11:06:14;9.65;;;1.80;;
70406;SDS011;57821;52.202;0.154;2024-01-10T11:08:46;9.50;;;2.00;;
70406;SDS011;57821;52.202;0.154;2024-01-10T11:14:23;11.13;;;2.00;;
70406;SDS011;57821;52.202;0.154;2024-01-10T11:17:24;7.97;;;1.60;;
70406;SDS011;57821;52.202;0.154;2024-01-10T11:25:30;8.45;;;1.65;;
70406;SDS011;57821;52.202;0.154;2024-01-10T11:28:02;9.90;;;1.55;;
70406;SDS011;57821;52.202;0.154;2024-01-10T11:33:30;9.63;;;2.25;;
70406;SDS011;57821;52.202;0.154;2024-01-10T11:36:07;5.65;;;1.33;;
70406;SDS011;57821;52.202;0.154;2024-01-10T11:41:14;15.05;;;1.88;;
70406;SDS011;57821;52.202;0.154;2024-01-10T11:46:49;12.70;;;2.03;;
70406;SDS011;57821;52.202;0.154;2024-01-10T11:49:19;13.10;;;2.30;;
70406;SDS011;57821;52.202;0.154;2024-01-10T11:51:52;10.55;;;2.85;;
70406;SDS011;57821;52.202;0.154;2024-01-10T11:54:39;17.30;;;4.25;;
70406;SDS011;57821;52.202;0.154;2024-01-10T11:57:19;11.30;;;3.33;;
70406;SDS011;57821;52.202;0.154;2024-01-10T11:59:51;12.63;;;4.15;;
70406;SDS011;57821;52.202;0.154;2024-01-10T12:02:20;12.52;;;3.67;;
70406;SDS011;57821;52.202;0.154;2024-01-10T12:04:50;15.65;;;5.65;;
70406;SDS011;57821;52.202;0.154;2024-01-10T12:07:17;14.70;;;5.40;;
70406;SDS011;57821;52.202;0.154;2024-01-10T12:09:46;11.65;;;2.90;;
70406;SDS011;57821;52.202;0.154;2024-01-10T12:12:13;12.82;;;3.65;;
70406;SDS011;57821;52.202;0.154;2024-01-10T12:14:41;12.02;;;2.60;;
70406;SDS011;57821;52.202;0.154;2024-01-10T12:17:10;8.70;;;2.53;;
70406;SDS011;57821;52.202;0.154;2024-01-10T12:19:37;8.90;;;2.67;;
70406;SDS011;57821;52.202;0.154;2024-01-10T12:22:04;12.15;;;2.50;;
70406;SDS011;57821;52.202;0.154;2024-01-10T12:24:34;7.90;;;1.70;;
70406;SDS011;57821;52.202;0.154;2024-01-10T12:27:09;12.65;;;2.00;;
70406;SDS011;57821;52.202;0.154;2024-01-10T12:29:36;8.70;;;2.10;;
70406;SDS011;57821;52.202;0.154;2024-01-10T12:32:03;8.30;;;2.47;;
70406;SDS011;57821;52.202;0.154;2024-01-10T12:34:30;10.20;;;2.42;;
70406;SDS011;57821;52.202;0.154;2024-01-10T12:36:57;9.73;;;2.40;;
70406;SDS011;57821;52.202;0.154;2024-01-10T12:39:23;10.32;;;2.30;;
70406;SDS011;57821;52.202;0.154;2024-01-10T12:41:52;9.48;;;2.22;;
70406;SDS011;57821;52.202;0.154;2024-01-10T12:44:18;8.55;;;2.08;;
70406;SDS011;57821;52.202;0.154;2024-01-10T12:46:51;11.75;;;2.85;;
70406;SDS011;57821;52.202;0.154;2024-01-10T12:49:19;7.10;;;2.67;;
70406;SDS011;57821;52.202;0.154;2024-01-10T12:51:48;9.10;;;2.90;;
70406;SDS011;57821;52.202;0.154;2024-01-10T12:54:15;11.77;;;1.98;;
70406;SDS011;57821;52.202;0.154;2024-01-10T12:56:43;8.73;;;2.10;;
70406;SDS011;57821;52.202;0.154;2024-01-10T12:59:10;11.65;;;3.63;;
70406;SDS011;57821;52.202;0.154;2024-01-10T13:01:37;8.85;;;2.70;;
70406;SDS011;57821;52.202;0.154;2024-01-10T13:04:04;13.73;;;3.65;;
70406;SDS011;57821;52.202;0.154;2024-01-10T13:06:35;13.13;;;4.10;;
70406;SDS011;57821;52.202;0.154;2024-01-10T13:09:02;9.57;;;2.70;;
70406;SDS011;57821;52.202;0.154;2024-01-10T13:11:29;14.60;;;4.70;;
70406;SDS011;57821;52.202;0.154;2024-01-10T13:13:56;8.50;;;3.33;;
70406;SDS011;57821;52.202;0.154;2024-01-10T13:16:23;13.52;;;2.70;;
70406;SDS011;57821;52.202;0.154;2024-01-10T13:18:50;13.45;;;3.60;;
70406;SDS011;57821;52.202;0.154;2024-01-10T13:21:19;10.82;;;3.00;;
70406;SDS011;57821;52.202;0.154;2024-01-10T13:23:46;7.95;;;2.40;;
70406;SDS011;57821;52.202;0.154;2024-01-10T13:26:13;10.57;;;3.10;;
70406;SDS011;57821;52.202;0.154;2024-01-10T13:28:40;17.75;;;7.68;;
70406;SDS011;57821;52.202;0.154;2024-01-10T13:31:07;25.13;;;11.90;;
70406;SDS011;57821;52.202;0.154;2024-01-10T13:33:34;29.30;;;16.00;;
70406;SDS011;57821;52.202;0.154;2024-01-10T13:36:08;22.02;;;12.40;;
70406;SDS011;57821;52.202;0.154;2024-01-10T13:38:35;14.30;;;4.80;;
70406;SDS011;57821;52.202;0.154;2024-01-10T13:41:03;13.10;;;3.88;;
70406;SDS011;57821;52.202;0.154;2024-01-10T13:43:31;11.30;;;2.65;;
70406;SDS011;57821;52.202;0.154;2024-01-10T13:45:58;10.05;;;3.53;;
70406;SDS011;57821;52.202;0.154;2024-01-10T13:48:25;7.32;;;1.92;;
70406;SDS011;57821;52.202;0.154;2024-01-10T13:50:52;8.60;;;2.53;;
70406;SDS011;57821;52.202;0.154;2024-01-10T13:53:20;10.48;;;2.00;;
70406;SDS011;57821;52.202;0.154;2024-01-10T13:55:46;9.35;;;2.35;;
70406;SDS011;57821;52.202;0.154;2024-01-10T13:58:13;11.90;;;2.30;;
70406;SDS011;57821;52.202;0.154;2024-01-10T14:00:40;9.40;;;1.80;;
70406;SDS011;57821;52.202;0.154;2024-01-10T14:03:13;9.68;;;2.00;;
70406;SDS011;57821;52.202;0.154;2024-01-10T14:05:42;11.07;;;2.58;;
70406;SDS011;57821;52.202;0.154;2024-01-10T14:08:09;19.55;;;7.35;;
70406;SDS011;57821;52.202;0.154;2024-01-10T14:10:37;8.88;;;2.47;;
70406;SDS011;57821;52.202;0.154;2024-01-10T14:13:05;12.25;;;2.08;;
70406;SDS011;57821;52.202;0.154;2024-01-10T14:15:32;11.18;;;2.15;;
70406;SDS011;57821;52.202;0.154;2024-01-10T14:17:58;9.93;;;2.38;;
70406;SDS011;57821;52.202;0.154;2024-01-10T14:20:25;13.63;;;3.45;;
70406;SDS011;57821;52.202;0.154;2024-01-10T14:22:52;14.55;;;2.30;;
70406;SDS011;57821;52.202;0.154;2024-01-10T14:25:19;8.18;;;1.63;;
70406;SDS011;57821;52.202;0.154;2024-01-10T14:27:47;9.73;;;2.17;;
70406;SDS011;57821;52.202;0.154;2024-01-10T14:30:13;7.32;;;2.20;;
70406;SDS011;57821;52.202;0.154;2024-01-10T14:32:44;12.20;;;2.13;;
70406;SDS011;57821;52.202;0.154;2024-01-10T14:35:14;21.38;;;8.27;;
70406;SDS011;57821;52.202;0.154;2024-01-10T14:37:42;18.02;;;5.90;;
70406;SDS011;57821;52.202;0.154;2024-01-10T14:40:10;9.88;;;4.20;;
70406;SDS011;57821;52.202;0.154;2024-01-10T14:42:37;9.70;;;3.38;;
70406;SDS011;57821;52.202;0.154;2024-01-10T14:45:04;8.35;;;2.83;;
70406;SDS011;57821;52.202;0.154;2024-01-10T14:47:31;12.98;;;3.22;;
70406;SDS011;57821;52.202;0.154;2024-01-10T14:49:58;10.65;;;2.65;;
70406;SDS011;57821;52.202;0.154;2024-01-10T14:52:25;12.40;;;3.50;;
70406;SDS011;57821;52.202;0.154;2024-01-10T14:54:52;11.95;;;2.63;;
70406;SDS011;57821;52.202;0.154;2024-01-10T14:57:19;10.55;;;3.28;;
70406;SDS011;57821;52.202;0.154;2024-01-10T14:59:48;11.50;;;3.22;;